Majesty — D5AD9 — position and weather

sailwx.info

Track history (hours):
 
Tides and Currents Weather Stations Pressure Air Temp Water Temp Dewpoint Dewpoint Depression Visibility Wind Speed Wind Dir Waves Ship Positions

Majesty

Last reported at 2018-Apr-26 06:16 UTC. Time now 2018-May-26 04:29 UTC.
Position S 32°15' E 115°45'.
Warning: this ship's position is 29 days out of date.

Length 180 m; draft 6 m.

Type: Cargo ship. MMSI: 636015357.

Date/timePositionNaut miles runAvg speedWind from/ knotsBaromVisibWave heightAir tempDewpointWater temp
2018-Apr-26 06:16S 32°15' E 115°45'0 0.0
2018-Apr-26 05:52S 32°15' E 115°45'0 0.0
2018-Apr-26 05:16S 32°15' E 115°45'0 0.0
2018-Apr-26 04:52S 32°15' E 115°45'0 0.0
2018-Apr-26 04:28S 32°15' E 115°45'0 0.0
2018-Apr-26 03:58S 32°15' E 115°45'0 0.0
2018-Apr-26 03:22S 32°15' E 115°45'0 0.0
2018-Apr-26 02:52S 32°15' E 115°45'0 0.0
2018-Apr-26 02:16S 32°15' E 115°45'0 0.0
2018-Apr-26 01:49S 32°15' E 115°45'0 0.0
2018-Apr-26 01:25S 32°15' E 115°45'0 0.0
2018-Apr-26 00:52S 32°15' E 115°45'0 0.0
2018-Apr-26 00:22S 32°15' E 115°45'0 0.0
2018-Apr-25 23:55S 32°15' E 115°45'0 0.0
2018-Apr-25 23:25S 32°15' E 115°45'0 0.0
2018-Apr-25 22:52S 32°15' E 115°45'0 0.0
2018-Apr-25 22:16S 32°15' E 115°45'0 0.0
2018-Apr-25 21:58S 32°15' E 115°45'0 0.0
2018-Apr-25 21:16S 32°15' E 115°45'0 0.1
2018-Apr-25 20:46S 32°15' E 115°45'0 0.0
2018-Apr-25 14:28S 32°15' E 115°45'0 0.0
2018-Apr-25 13:58S 32°15' E 115°45'0 0.0
2018-Apr-25 13:28S 32°15' E 115°45'0 0.0
2018-Apr-25 12:58S 32°15' E 115°45'0 0.0
2018-Apr-25 12:28S 32°15' E 115°45'0 0.0
2018-Apr-25 11:52S 32°15' E 115°45'0 0.0
2018-Apr-25 11:28S 32°15' E 115°45'0 0.0
2018-Apr-25 10:58S 32°15' E 115°45'0 0.0
2018-Apr-25 10:28S 32°15' E 115°45'0 0.0
2018-Apr-25 09:55S 32°15' E 115°45'0 0.0
2018-Apr-25 09:28S 32°15' E 115°45'0 0.0
2018-Apr-25 08:55S 32°15' E 115°45'0 0.0
2018-Apr-25 08:28S 32°15' E 115°45'0 0.0
2018-Apr-25 07:52S 32°15' E 115°45'0 0.0
2018-Apr-25 07:28S 32°15' E 115°45'0 0.0
2018-Apr-25 06:22S 32°15' E 115°45'0 0.0
2018-Apr-25 05:58S 32°15' E 115°45'0 0.0
2018-Apr-25 05:30S 32°15' E 115°45'1 1.9
2018-Apr-25 05:00S 32°14' E 115°45'1 2.3
2018-Apr-25 04:30S 32°14' E 115°43'0 0.0
2018-Apr-25 03:39S 32°14' E 115°43'0 0.1
2018-Apr-25 03:24S 32°14' E 115°43'0 0.0
2018-Apr-25 02:57S 32°14' E 115°43'0 0.0
2018-Apr-25 02:21S 32°14' E 115°43'0 0.0
2018-Apr-25 02:00S 32°14' E 115°43'0 0.0
2018-Apr-25 01:30S 32°14' E 115°43'0 0.0
2018-Apr-25 00:57S 32°14' E 115°43'0 0.0
2018-Apr-25 00:30S 32°14' E 115°43'0 0.0
2018-Apr-24 23:42S 32°14' E 115°43'0 0.0
2018-Apr-24 23:27S 32°14' E 115°43'0 0.1
2018-Apr-24 22:57S 32°14' E 115°43'0 0.0
2018-Apr-24 22:21S 32°14' E 115°43'0 0.1
2018-Apr-24 22:00S 32°14' E 115°43'0 0.1
2018-Apr-24 21:30S 32°14' E 115°43'0 0.0
2018-Apr-24 21:00S 32°14' E 115°43'0 0.1
2018-Apr-24 20:18S 32°14' E 115°43'0 0.3
2018-Apr-24 20:00S 32°14' E 115°43'2 3.9
2018-Apr-24 19:30S 32°12' E 115°43'611.0
2018-Apr-24 19:00S 32°07' E 115°42'510.1
2018-Apr-24 18:30S 32°02' E 115°41'1 1.6
2018-Apr-24 18:00S 32°02' E 115°40'0 0.5
2018-Apr-24 17:28S 32°01' E 115°40'0 0.0
2018-Apr-24 16:58S 32°01' E 115°40'0 0.1
2018-Apr-24 16:22S 32°01' E 115°40'0 0.1
2018-Apr-24 15:58S 32°01' E 115°40'0 0.0
2018-Apr-24 15:28S 32°01' E 115°40'0 0.1
2018-Apr-24 14:58S 32°01' E 115°40'0 0.0
2018-Apr-24 14:28S 32°01' E 115°40'0 0.1
2018-Apr-24 13:58S 32°01' E 115°40'0 0.1
2018-Apr-24 13:28S 32°01' E 115°40'0 0.1
2018-Apr-24 12:52S 32°01' E 115°40'0 0.1
2018-Apr-24 12:28S 32°01' E 115°40'0 0.0
2018-Apr-24 11:58S 32°01' E 115°40'0 0.0
2018-Apr-24 11:28S 32°01' E 115°40'0 0.1
2018-Apr-24 10:58S 32°01' E 115°40'0 0.0
2018-Apr-24 10:28S 32°01' E 115°40'0 0.5
2018-Apr-24 10:00S 32°02' E 115°41'2 3.4
2018-Apr-24 09:30S 32°00' E 115°42'3 4.9
2018-Apr-24 08:59S 31°58' E 115°41'4 7.8
2018-Apr-24 08:30S 31°56' E 115°37'  
2018-Apr-16 19:47N 01°14' E 103°59'413.2
2018-Apr-16 19:30N 01°13' E 103°55'3 5.3
2018-Apr-16 18:54N 01°15' E 103°53'0 0.0
2018-Apr-16 18:30N 01°15' E 103°53'0 0.0
2018-Apr-16 18:00N 01°15' E 103°53'0 0.1
2018-Apr-16 17:00N 01°15' E 103°53'0 0.1
2018-Apr-16 16:30N 01°15' E 103°52'0 0.1
2018-Apr-16 16:00N 01°15' E 103°52'0 0.0
2018-Apr-16 15:30N 01°15' E 103°52'0 0.0
2018-Apr-16 14:33N 01°15' E 103°52'0 0.0
2018-Apr-16 14:12N 01°15' E 103°52'0 0.0
2018-Apr-16 12:06N 01°15' E 103°52'0 0.0
2018-Apr-16 11:57N 01°15' E 103°52'0 0.0
2018-Apr-16 11:30N 01°15' E 103°52'0 0.1
2018-Apr-16 11:00N 01°15' E 103°52'0 0.1
2018-Apr-16 10:30N 01°15' E 103°52'2 3.3
2018-Apr-16 09:59N 01°13' E 103°54'3 5.0
2018-Apr-16 09:27N 01°14' E 103°56'  
Track history (hours):
 
Tides and Currents Weather Stations Pressure Air Temp Water Temp Dewpoint Dewpoint Depression Visibility Wind Speed Wind Dir Waves Ship Positions

Majesty

Last reported at 2018-Apr-26 06:16 UTC. Time now 2018-May-26 04:29 UTC.
Position S 32°15' E 115°45'.
Warning: this ship's position is 29 days out of date.

Length 180 m; draft 6 m.

Type: Cargo ship. MMSI: 636015357.

Date/timePositionNaut miles runAvg speedWind from/ knotsBaromVisibWave heightAir tempDewpointWater temp
2018-Apr-26 06:16S 32°15' E 115°45'0 0.0
2018-Apr-26 05:52S 32°15' E 115°45'0 0.0
2018-Apr-26 05:16S 32°15' E 115°45'0 0.0
2018-Apr-26 04:52S 32°15' E 115°45'0 0.0
2018-Apr-26 04:28S 32°15' E 115°45'0 0.0
2018-Apr-26 03:58S 32°15' E 115°45'0 0.0
2018-Apr-26 03:22S 32°15' E 115°45'0 0.0
2018-Apr-26 02:52S 32°15' E 115°45'0 0.0
2018-Apr-26 02:16S 32°15' E 115°45'0 0.0
2018-Apr-26 01:49S 32°15' E 115°45'0 0.0
2018-Apr-26 01:25S 32°15' E 115°45'0 0.0
2018-Apr-26 00:52S 32°15' E 115°45'0 0.0
2018-Apr-26 00:22S 32°15' E 115°45'0 0.0
2018-Apr-25 23:55S 32°15' E 115°45'0 0.0
2018-Apr-25 23:25S 32°15' E 115°45'0 0.0
2018-Apr-25 22:52S 32°15' E 115°45'0 0.0
2018-Apr-25 22:16S 32°15' E 115°45'0 0.0
2018-Apr-25 21:58S 32°15' E 115°45'0 0.0
2018-Apr-25 21:16S 32°15' E 115°45'0 0.1
2018-Apr-25 20:46S 32°15' E 115°45'0 0.0
2018-Apr-25 14:28S 32°15' E 115°45'0 0.0
2018-Apr-25 13:58S 32°15' E 115°45'0 0.0
2018-Apr-25 13:28S 32°15' E 115°45'0 0.0
2018-Apr-25 12:58S 32°15' E 115°45'0 0.0
2018-Apr-25 12:28S 32°15' E 115°45'0 0.0
2018-Apr-25 11:52S 32°15' E 115°45'0 0.0
2018-Apr-25 11:28S 32°15' E 115°45'0 0.0
2018-Apr-25 10:58S 32°15' E 115°45'0 0.0
2018-Apr-25 10:28S 32°15' E 115°45'0 0.0
2018-Apr-25 09:55S 32°15' E 115°45'0 0.0
2018-Apr-25 09:28S 32°15' E 115°45'0 0.0
2018-Apr-25 08:55S 32°15' E 115°45'0 0.0
2018-Apr-25 08:28S 32°15' E 115°45'0 0.0
2018-Apr-25 07:52S 32°15' E 115°45'0 0.0
2018-Apr-25 07:28S 32°15' E 115°45'0 0.0
2018-Apr-25 06:22S 32°15' E 115°45'0 0.0
2018-Apr-25 05:58S 32°15' E 115°45'0 0.0
2018-Apr-25 05:30S 32°15' E 115°45'1 1.9
2018-Apr-25 05:00S 32°14' E 115°45'1 2.3
2018-Apr-25 04:30S 32°14' E 115°43'0 0.0
2018-Apr-25 03:39S 32°14' E 115°43'0 0.1
2018-Apr-25 03:24S 32°14' E 115°43'0 0.0
2018-Apr-25 02:57S 32°14' E 115°43'0 0.0
2018-Apr-25 02:21S 32°14' E 115°43'0 0.0
2018-Apr-25 02:00S 32°14' E 115°43'0 0.0
2018-Apr-25 01:30S 32°14' E 115°43'0 0.0
2018-Apr-25 00:57S 32°14' E 115°43'0 0.0
2018-Apr-25 00:30S 32°14' E 115°43'0 0.0
2018-Apr-24 23:42S 32°14' E 115°43'0 0.0
2018-Apr-24 23:27S 32°14' E 115°43'0 0.1
2018-Apr-24 22:57S 32°14' E 115°43'0 0.0
2018-Apr-24 22:21S 32°14' E 115°43'0 0.1
2018-Apr-24 22:00S 32°14' E 115°43'0 0.1
2018-Apr-24 21:30S 32°14' E 115°43'0 0.0
2018-Apr-24 21:00S 32°14' E 115°43'0 0.1
2018-Apr-24 20:18S 32°14' E 115°43'0 0.3
2018-Apr-24 20:00S 32°14' E 115°43'2 3.9
2018-Apr-24 19:30S 32°12' E 115°43'611.0
2018-Apr-24 19:00S 32°07' E 115°42'510.1
2018-Apr-24 18:30S 32°02' E 115°41'1 1.6
2018-Apr-24 18:00S 32°02' E 115°40'0 0.5
2018-Apr-24 17:28S 32°01' E 115°40'0 0.0
2018-Apr-24 16:58S 32°01' E 115°40'0 0.1
2018-Apr-24 16:22S 32°01' E 115°40'0 0.1
2018-Apr-24 15:58S 32°01' E 115°40'0 0.0
2018-Apr-24 15:28S 32°01' E 115°40'0 0.1
2018-Apr-24 14:58S 32°01' E 115°40'0 0.0
2018-Apr-24 14:28S 32°01' E 115°40'0 0.1
2018-Apr-24 13:58S 32°01' E 115°40'0 0.1
2018-Apr-24 13:28S 32°01' E 115°40'0 0.1
2018-Apr-24 12:52S 32°01' E 115°40'0 0.1
2018-Apr-24 12:28S 32°01' E 115°40'0 0.0
2018-Apr-24 11:58S 32°01' E 115°40'0 0.0
2018-Apr-24 11:28S 32°01' E 115°40'0 0.1
2018-Apr-24 10:58S 32°01' E 115°40'0 0.0
2018-Apr-24 10:28S 32°01' E 115°40'0 0.5
2018-Apr-24 10:00S 32°02' E 115°41'2 3.4
2018-Apr-24 09:30S 32°00' E 115°42'3 4.9
2018-Apr-24 08:59S 31°58' E 115°41'4 7.8
2018-Apr-24 08:30S 31°56' E 115°37'  
2018-Apr-16 19:47N 01°14' E 103°59'413.2
2018-Apr-16 19:30N 01°13' E 103°55'3 5.3
2018-Apr-16 18:54N 01°15' E 103°53'0 0.0
2018-Apr-16 18:30N 01°15' E 103°53'0 0.0
2018-Apr-16 18:00N 01°15' E 103°53'0 0.1
2018-Apr-16 17:00N 01°15' E 103°53'0 0.1
2018-Apr-16 16:30N 01°15' E 103°52'0 0.1
2018-Apr-16 16:00N 01°15' E 103°52'0 0.0
2018-Apr-16 15:30N 01°15' E 103°52'0 0.0
2018-Apr-16 14:33N 01°15' E 103°52'0 0.0
2018-Apr-16 14:12N 01°15' E 103°52'0 0.0
2018-Apr-16 12:06N 01°15' E 103°52'0 0.0
2018-Apr-16 11:57N 01°15' E 103°52'0 0.0
2018-Apr-16 11:30N 01°15' E 103°52'0 0.1
2018-Apr-16 11:00N 01°15' E 103°52'0 0.1
2018-Apr-16 10:30N 01°15' E 103°52'2 3.3
2018-Apr-16 09:59N 01°13' E 103°54'3 5.0
2018-Apr-16 09:27N 01°14' E 103°56'  

Dump ship's entire track history